Time;durP1;ratioP1;P1;durP2;ratioP2;P2;SDS_P1;SDS_P2;PMS_P1;PMS_P2;Temp;Humidity;BMP_temperature;BMP_pressure;BME280_temperature;BME280_humidity;BME280_pressure;Samples;Min_cycle;Max_cycle;Signal;HPM_P1;HPM_P2
2021/09/08 00:04:35;;;;;;;16.08;10.23;;;;;;;15.87;77.73;102175.94;10110128;28;20038;-70
2021/09/08 00:09:32;;;;;;;16.45;10.45;;;;;;;15.85;77.86;102180.97;10105335;28;20541;-70
2021/09/08 00:14:28;;;;;;;16.67;9.35;;;;;;;15.78;77.70;102182.25;10107708;28;20094;-70
2021/09/08 00:19:25;;;;;;;15.80;9.80;;;;;;;15.73;78.04;102178.81;10105721;28;20051;-70
2021/09/08 00:24:22;;;;;;;15.57;10.32;;;;;;;15.71;77.57;102173.63;10104728;28;20852;-69
2021/09/08 00:29:18;;;;;;;13.45;9.57;;;;;;;15.66;77.77;102173.72;10108270;28;20134;-70
2021/09/08 00:34:15;;;;;;;14.70;9.27;;;;;;;15.68;77.65;102163.19;10107887;28;20574;-70
2021/09/08 00:39:11;;;;;;;13.23;8.70;;;;;;;15.67;77.81;102161.56;10108025;28;20081;-69
2021/09/08 00:44:09;;;;;;;13.43;8.63;;;;;;;15.65;77.67;102174.84;10107207;28;20577;-69
2021/09/08 00:49:06;;;;;;;12.13;7.85;;;;;;;15.58;77.62;102163.47;10104806;28;20081;-70
2021/09/08 00:54:11;;;;;;;14.38;9.35;;;;;;;15.55;77.75;102164.09;10097330;28;20082;-69
2021/09/08 00:59:08;;;;;;;12.45;7.75;;;;;;;15.48;77.76;102158.19;10100677;28;20564;-69
2021/09/08 01:04:05;;;;;;;12.00;8.55;;;;;;;15.42;77.57;102156.72;10103564;28;20061;-69
2021/09/08 01:09:04;;;;;;;15.27;8.35;;;;;;;15.40;77.95;102150.72;10100510;28;20050;-70
2021/09/08 01:14:01;;;;;;;11.05;8.15;;;;;;;15.39;77.91;102160.09;10107130;28;20066;-69
2021/09/08 01:18:57;;;;;;;12.82;7.95;;;;;;;15.33;78.12;102153.91;10102286;28;20047;-71
2021/09/08 01:23:53;;;;;;;12.63;8.27;;;;;;;15.26;78.03;102146.09;10108586;28;20492;-69
2021/09/08 01:28:50;;;;;;;10.63;7.78;;;;;;;15.20;78.26;102136.34;10101317;28;20094;-69
2021/09/08 01:33:46;;;;;;;12.90;8.63;;;;;;;15.16;78.07;102135.34;10099806;28;20043;-70
2021/09/08 01:38:43;;;;;;;10.63;7.32;;;;;;;15.14;78.26;102137.59;10097791;28;20042;-69
2021/09/08 01:43:39;;;;;;;12.50;7.88;;;;;;;15.09;78.49;102129.47;10101975;28;20134;-69
2021/09/08 01:48:36;;;;;;;10.85;7.93;;;;;;;15.07;78.50;102137.22;10105066;28;20051;-70
2021/09/08 01:53:32;;;;;;;10.50;7.50;;;;;;;15.03;78.88;102130.72;10106218;28;20043;-72
2021/09/08 01:58:30;;;;;;;12.50;8.63;;;;;;;14.99;78.39;102124.19;10112264;28;20082;-69
2021/09/08 02:03:27;;;;;;;11.02;7.80;;;;;;;14.92;78.45;102122.72;10113309;28;20039;-69
2021/09/08 02:08:23;;;;;;;12.65;7.60;;;;;;;14.92;78.77;102125.47;10112945;28;20172;-69
2021/09/08 02:13:20;;;;;;;11.98;7.65;;;;;;;14.87;78.82;102125.56;10108236;28;20039;-70
2021/09/08 02:18:16;;;;;;;12.23;8.40;;;;;;;14.83;78.50;102138.38;10105063;28;20102;-69
2021/09/08 02:23:13;;;;;;;11.43;6.80;;;;;;;14.81;78.50;102137.06;10112438;28;20074;-69
2021/09/08 02:28:09;;;;;;;10.30;6.97;;;;;;;14.77;78.72;102131.34;10115854;28;20232;-69
2021/09/08 02:33:06;;;;;;;11.63;7.07;;;;;;;14.72;78.72;102136.97;10110886;28;20039;-70
2021/09/08 02:38:02;;;;;;;13.05;6.68;;;;;;;14.68;78.62;102135.97;10110197;28;20042;-70
2021/09/08 02:42:59;;;;;;;9.80;6.20;;;;;;;14.68;78.77;102131.25;10104892;28;20414;-70
2021/09/08 02:47:55;;;;;;;10.50;6.80;;;;;;;14.64;78.73;102129.44;10108200;28;20074;-70
2021/09/08 02:52:52;;;;;;;10.82;6.68;;;;;;;14.60;78.70;102134.78;10105378;28;20090;-69
2021/09/08 02:57:48;;;;;;;10.52;7.05;;;;;;;14.58;78.94;102126.00;10108490;28;20074;-70
2021/09/08 03:02:45;;;;;;;10.05;6.10;;;;;;;14.56;78.77;102121.94;10101744;28;20488;-70
2021/09/08 03:07:41;;;;;;;9.57;6.60;;;;;;;14.53;78.89;102113.16;10100895;28;20479;-70
2021/09/08 03:12:38;;;;;;;11.63;6.90;;;;;;;14.51;79.16;102109.09;10109240;28;20043;-70
2021/09/08 03:17:34;;;;;;;9.18;6.63;;;;;;;14.50;78.84;102113.78;10103735;28;20051;-70
2021/09/08 03:22:31;;;;;;;10.02;6.95;;;;;;;14.46;79.13;102101.75;10107724;28;20395;-70
2021/09/08 03:27:27;;;;;;;13.35;7.35;;;;;;;14.43;79.35;102102.34;10106444;28;20079;-70
2021/09/08 03:32:24;;;;;;;9.95;6.90;;;;;;;14.38;79.30;102099.72;10109920;28;20518;-70
2021/09/08 03:37:20;;;;;;;11.95;6.00;;;;;;;14.34;79.19;102098.72;10111437;28;20051;-70
2021/09/08 03:42:20;;;;;;;10.55;7.20;;;;;;;14.31;79.49;102089.13;10109534;28;20141;-70
2021/09/08 03:47:17;;;;;;;11.25;7.78;;;;;;;14.27;79.26;102082.66;10104298;28;20146;-70
2021/09/08 03:52:14;;;;;;;12.35;7.10;;;;;;;14.26;79.20;102088.47;10108182;28;20078;-70
2021/09/08 03:57:11;;;;;;;10.52;7.63;;;;;;;14.23;79.35;102091.84;10108515;28;20526;-70
2021/09/08 04:02:07;;;;;;;13.80;7.95;;;;;;;14.20;79.72;102092.44;10104144;28;20485;-70
2021/09/08 04:07:04;;;;;;;9.60;7.15;;;;;;;14.19;79.29;102085.31;10109225;28;20046;-69
2021/09/08 04:12:01;;;;;;;11.60;7.05;;;;;;;14.17;79.87;102087.56;10110975;28;20086;-71
2021/09/08 04:16:57;;;;;;;10.48;7.45;;;;;;;14.15;79.62;102082.34;10095569;28;20046;-72
2021/09/08 04:21:54;;;;;;;12.13;7.95;;;;;;;14.12;79.85;102091.22;10094491;28;20065;-71
2021/09/08 04:26:50;;;;;;;13.70;7.60;;;;;;;14.08;79.81;102080.03;10089315;28;20035;-72
2021/09/08 04:31:47;;;;;;;13.07;7.90;;;;;;;14.04;79.90;102084.53;10099911;28;20062;-69
2021/09/08 04:36:44;;;;;;;14.40;8.25;;;;;;;13.99;79.83;102087.38;10100917;28;20105;-72
2021/09/08 04:41:40;;;;;;;13.50;7.40;;;;;;;13.96;79.95;102077.00;10099657;28;20495;-70
2021/09/08 04:46:37;;;;;;;12.20;7.68;;;;;;;13.98;79.61;102074.75;10093621;28;20459;-72
2021/09/08 04:51:34;;;;;;;12.57;8.00;;;;;;;13.97;79.86;102078.63;10095989;28;20134;-69
2021/09/08 04:56:30;;;;;;;13.68;8.38;;;;;;;13.96;80.11;102077.00;10100378;28;20426;-68
2021/09/08 05:01:27;;;;;;;13.95;8.38;;;;;;;13.95;80.18;102085.53;10087054;28;20047;-69
2021/09/08 05:06:24;;;;;;;12.35;8.20;;;;;;;13.94;80.72;102095.72;10087792;28;20506;-69
2021/09/08 05:11:20;;;;;;;14.85;8.35;;;;;;;13.95;80.62;102091.88;10083214;28;20503;-69
2021/09/08 05:16:17;;;;;;;14.93;8.50;;;;;;;13.98;80.79;102091.25;10093056;28;20090;-68
2021/09/08 05:21:13;;;;;;;14.20;8.38;;;;;;;14.02;80.46;102091.47;10095065;28;20047;-70
2021/09/08 05:26:11;;;;;;;15.75;8.65;;;;;;;14.04;80.94;102090.03;10089279;28;20071;-69
2021/09/08 05:31:07;;;;;;;15.23;8.80;;;;;;;14.07;80.63;102089.41;10082564;28;20043;-69
2021/09/08 05:36:04;;;;;;;14.38;8.85;;;;;;;14.09;80.68;102089.91;10094683;28;20046;-69
2021/09/08 05:41:03;;;;;;;14.48;8.90;;;;;;;14.12;81.17;102093.19;10088605;28;20051;-69
2021/09/08 05:45:59;;;;;;;14.10;10.30;;;;;;;14.15;81.17;102100.81;10093363;28;20081;-69
2021/09/08 05:50:56;;;;;;;16.05;9.77;;;;;;;14.18;81.45;102100.19;10093162;28;20067;-68
2021/09/08 05:55:55;;;;;;;16.08;10.80;;;;;;;14.23;81.61;102097.34;10097320;28;20085;-70
2021/09/08 06:00:51;;;;;;;15.98;10.23;;;;;;;14.27;81.51;102098.31;10091536;28;20649;-69
2021/09/08 06:05:50;;;;;;;15.63;10.73;;;;;;;14.29;81.84;102101.59;10087788;28;20108;-69
2021/09/08 06:10:46;;;;;;;14.48;11.05;;;;;;;14.38;82.14;102105.22;10088768;28;20078;-69
2021/09/08 06:15:43;;;;;;;19.65;10.80;;;;;;;14.43;82.13;102102.34;10101833;28;20082;-69
2021/09/08 06:20:39;;;;;;;17.15;11.15;;;;;;;14.48;81.88;102104.19;10102956;28;20047;-69
2021/09/08 06:25:36;;;;;;;19.73;11.85;;;;;;;14.50;82.73;102105.53;10094721;28;20101;-69
2021/09/08 06:30:32;;;;;;;16.00;11.10;;;;;;;14.61;82.90;102097.03;10090238;28;20106;-70
2021/09/08 06:35:29;;;;;;;17.58;11.73;;;;;;;14.68;82.75;102100.97;10089559;28;20133;-70
2021/09/08 06:40:25;;;;;;;17.38;11.48;;;;;;;14.77;82.91;102095.53;10097144;28;20058;-69
2021/09/08 06:45:23;;;;;;;16.02;11.70;;;;;;;14.86;82.96;102095.63;10094309;28;20181;-69
2021/09/08 06:50:19;;;;;;;19.27;12.43;;;;;;;14.93;82.95;102099.53;10100495;28;20614;-70
2021/09/08 06:55:16;;;;;;;18.00;11.95;;;;;;;15.01;83.58;102091.66;10102915;28;20078;-70
2021/09/08 07:00:13;;;;;;;20.02;11.93;;;;;;;15.11;83.32;102083.16;10107664;28;20176;-69
2021/09/08 07:05:09;;;;;;;16.15;10.85;;;;;;;15.20;83.54;102078.50;10108951;28;20105;-70
2021/09/08 07:10:07;;;;;;;17.95;11.48;;;;;;;15.29;83.29;102073.84;10108643;28;20082;-70
2021/09/08 07:15:04;;;;;;;15.57;11.02;;;;;;;15.42;82.81;102071.28;10112069;28;20051;-70
2021/09/08 07:20:02;;;;;;;18.98;12.52;;;;;;;15.58;82.03;102069.75;10105395;28;20501;-70
2021/09/08 07:24:58;;;;;;;17.67;11.50;;;;;;;15.68;82.46;102063.13;10108309;28;20051;-70
2021/09/08 07:29:55;;;;;;;17.70;12.02;;;;;;;15.88;80.07;102068.06;10098895;28;20125;-70
2021/09/08 07:34:57;;;;;;;17.40;11.30;;;;;;;16.03;79.24;102058.50;10110352;28;20466;-69
2021/09/08 07:39:54;;;;;;;17.30;11.80;;;;;;;16.18;79.25;102055.28;10097864;28;20047;-70
2021/09/08 07:44:52;;;;;;;20.73;12.23;;;;;;;16.34;77.50;102054.81;10107218;28;20561;-70
2021/09/08 07:49:50;;;;;;;17.13;11.65;;;;;;;16.48;77.78;102058.22;10106655;28;20891;-70
2021/09/08 07:54:46;;;;;;;17.45;10.98;;;;;;;16.58;77.12;102046.84;10104733;28;20039;-70
2021/09/08 07:59:43;;;;;;;19.33;11.48;;;;;;;16.75;77.68;102050.72;10098284;28;20046;-69
2021/09/08 08:04:40;;;;;;;19.75;11.15;;;;;;;16.90;75.26;102053.00;10101712;28;20043;-69
2021/09/08 08:09:41;;;;;;;17.80;10.40;;;;;;;17.08;75.13;102047.41;10092034;28;20078;-70
2021/09/08 08:14:38;;;;;;;15.48;10.05;;;;;;;17.22;75.13;102039.75;10089956;28;20454;-69
2021/09/08 08:19:35;;;;;;;15.95;10.15;;;;;;;17.36;73.44;102037.56;10094992;28;20085;-70
2021/09/08 08:24:32;;;;;;;18.15;9.95;;;;;;;17.55;73.11;102037.16;10093568;28;20075;-70
2021/09/08 08:29:29;;;;;;;18.25;10.65;;;;;;;17.70;71.83;102035.75;10087076;28;20553;-70
2021/09/08 08:34:25;;;;;;;17.83;10.05;;;;;;;17.82;70.63;102027.59;10085225;28;20516;-70
2021/09/08 08:39:22;;;;;;;15.05;8.95;;;;;;;17.98;70.85;102026.97;10094295;28;20102;-70
2021/09/08 08:44:23;;;;;;;14.82;9.65;;;;;;;18.17;70.08;102020.97;10083437;28;20499;-70
2021/09/08 08:49:20;;;;;;;14.70;8.88;;;;;;;18.38;69.46;102026.50;10089767;28;20055;-70
2021/09/08 08:54:17;;;;;;;13.82;9.43;;;;;;;18.56;68.55;102022.41;10079793;28;20507;-70
2021/09/08 08:59:14;;;;;;;13.07;8.65;;;;;;;18.72;69.61;102020.63;10095157;28;20080;-74
2021/09/08 09:04:14;;;;;;;18.00;9.60;;;;;;;18.85;67.37;102023.47;10089102;28;20094;-68
2021/09/08 09:09:16;;;;;;;18.70;9.27;;;;;;;19.01;67.73;102032.75;10084757;28;20403;-70
2021/09/08 09:14:13;;;;;;;18.35;9.35;;;;;;;19.05;67.66;102028.16;10093817;28;20038;-71
2021/09/08 09:19:12;;;;;;;15.93;8.95;;;;;;;19.09;67.15;102020.72;10100140;28;20431;-71
2021/09/08 09:24:09;;;;;;;11.70;8.68;;;;;;;19.10;67.27;102014.06;10091162;28;20039;-70
2021/09/08 09:29:16;;;;;;;13.35;8.05;;;;;;;19.04;66.55;102012.66;10104463;28;20430;-71
2021/09/08 09:34:13;;;;;;;16.20;8.65;;;;;;;18.99;65.98;102012.88;10086904;28;20679;-70
2021/09/08 09:39:10;;;;;;;11.68;7.38;;;;;;;19.07;66.65;102014.72;10095397;28;20296;-70
2021/09/08 09:44:15;;;;;;;12.98;8.20;;;;;;;19.13;65.97;102002.25;10084971;28;20058;-72
2021/09/08 09:49:13;;;;;;;13.73;8.40;;;;;;;19.40;65.17;101999.16;10080308;28;20043;-69
2021/09/08 09:54:10;;;;;;;14.75;7.93;;;;;;;19.60;63.10;101991.88;10083319;28;20043;-69
2021/09/08 09:59:12;;;;;;;14.38;7.53;;;;;;;19.78;62.24;101987.69;10082533;28;20558;-71
2021/09/08 10:04:09;;;;;;;13.73;7.57;;;;;;;20.04;62.61;101978.16;10084323;28;20410;-72
2021/09/08 10:09:12;;;;;;;9.05;6.32;;;;;;;20.20;59.64;101981.78;10082047;28;20046;-72
2021/09/08 10:14:15;;;;;;;13.30;6.97;;;;;;;20.32;59.03;101975.38;10091609;28;20047;-71
2021/09/08 10:19:15;;;;;;;13.68;7.00;;;;;;;20.51;60.28;101981.06;10087901;28;20082;-70
2021/09/08 10:24:12;;;;;;;10.25;6.90;;;;;;;20.68;61.38;101968.84;10101587;28;20042;-70
2021/09/08 10:29:09;;;;;;;10.40;7.00;;;;;;;20.91;61.47;101965.44;10089749;28;20055;-70
2021/09/08 10:34:07;;;;;;;12.10;6.75;;;;;;;21.07;59.10;101949.56;10090965;28;20042;-70
2021/09/08 10:39:04;;;;;;;12.23;7.97;;;;;;;21.28;59.18;101945.69;10093557;28;20457;-70
2021/09/08 10:44:00;;;;;;;9.88;6.60;;;;;;;21.52;59.58;101937.16;10089978;28;20102;-70
2021/09/08 10:48:57;;;;;;;9.70;6.93;;;;;;;21.80;56.81;101928.59;10091358;28;20066;-70
2021/09/08 10:54:07;;;;;;;9.85;6.38;;;;;;;21.98;55.35;101923.41;10100259;28;20541;-68
2021/09/08 10:59:03;;;;;;;9.57;6.32;;;;;;;22.19;56.26;101916.66;10095126;28;20050;-64
2021/09/08 11:04:01;;;;;;;9.63;6.45;;;;;;;22.30;54.41;101914.88;10088873;28;20121;-68
2021/09/08 11:09:04;;;;;;;10.90;6.45;;;;;;;22.51;55.45;101916.47;10091353;28;20135;-68
2021/09/08 11:14:00;;;;;;;9.88;6.18;;;;;;;22.52;53.85;101902.16;10096526;28;20057;-68
2021/09/08 11:19:02;;;;;;;9.95;6.53;;;;;;;22.59;54.39;101901.47;10107840;28;20154;-68
2021/09/08 11:24:04;;;;;;;10.40;6.55;;;;;;;22.74;55.01;101892.16;10103595;28;20042;-67
2021/09/08 11:29:03;;;;;;;10.45;6.03;;;;;;;22.92;57.05;101902.81;10089575;28;20078;-67
2021/09/08 11:34:00;;;;;;;10.68;6.40;;;;;;;22.92;50.37;101891.66;10087982;28;20435;-66
2021/09/08 11:38:59;;;;;;;8.48;5.22;;;;;;;23.12;52.04;101896.00;10091515;28;20427;-69
2021/09/08 11:43:58;;;;;;;8.00;5.60;;;;;;;23.18;55.60;101894.47;10094247;28;20062;-71
2021/09/08 11:49:02;;;;;;;8.85;5.90;;;;;;;23.15;52.53;101889.66;10094407;28;20467;-69
2021/09/08 11:54:02;;;;;;;10.43;6.10;;;;;;;23.09;53.47;101886.41;10098175;28;20518;-71
2021/09/08 11:59:03;;;;;;;9.32;6.28;;;;;;;23.18;52.80;101877.72;10100132;28;20080;-69
2021/09/08 12:04:01;;;;;;;8.68;6.05;;;;;;;23.66;52.54;101874.41;10089898;28;20109;-70
2021/09/08 12:08:58;;;;;;;9.70;6.22;;;;;;;23.94;52.97;101863.56;10084445;28;20049;-68
2021/09/08 12:13:54;;;;;;;9.60;5.55;;;;;;;24.50;53.40;101872.13;10098476;28;20099;-70
2021/09/08 12:19:09;;;;;;;8.65;6.10;;;;;;;25.28;51.82;101855.13;10097691;28;20074;-68
2021/09/08 12:24:21;;;;;;;10.20;5.85;;;;;;;26.48;50.88;101852.28;10092740;28;20051;-71
2021/09/08 12:29:18;;;;;;;7.97;5.93;;;;;;;26.68;47.13;101849.09;10094754;28;20503;-68
2021/09/08 12:34:15;;;;;;;6.90;4.95;;;;;;;26.62;47.55;101831.84;10090878;28;20050;-71
2021/09/08 12:39:19;;;;;;;8.27;5.55;;;;;;;26.93;47.56;101838.66;10080376;28;20112;-70
2021/09/08 12:44:25;;;;;;;8.88;5.82;;;;;;;26.76;46.41;101828.25;10086130;28;20737;-71
2021/09/08 12:49:25;;;;;;;9.82;6.13;;;;;;;26.47;44.39;101819.81;10086777;28;20106;-70
2021/09/08 12:54:22;;;;;;;10.15;6.03;;;;;;;27.13;44.38;101824.16;10078141;28;20047;-69
2021/09/08 12:59:21;;;;;;;9.98;5.10;;;;;;;27.17;42.61;101813.72;10072989;28;20067;-68
2021/09/08 13:04:18;;;;;;;7.28;4.93;;;;;;;26.97;46.56;101805.78;10090772;28;20081;-68
2021/09/08 13:09:16;;;;;;;8.38;4.93;;;;;;;26.50;44.73;101796.59;10095289;28;20118;-69
2021/09/08 13:14:13;;;;;;;8.60;4.97;;;;;;;26.37;47.22;101789.81;10089552;28;20113;-69
2021/09/08 13:19:10;;;;;;;6.15;4.55;;;;;;;26.72;47.28;101782.59;10093562;28;20071;-69
2021/09/08 13:24:09;;;;;;;8.07;5.25;;;;;;;26.66;44.43;101782.97;10089732;28;20127;-69
2021/09/08 13:29:09;;;;;;;8.90;4.82;;;;;;;27.11;45.51;101776.03;10091048;28;20438;-72
2021/09/08 13:34:07;;;;;;;7.60;4.78;;;;;;;27.56;44.86;101773.47;10095875;28;20050;-70
2021/09/08 13:39:05;;;;;;;8.57;4.82;;;;;;;27.48;42.41;101767.88;10094679;28;20105;-69
2021/09/08 13:44:02;;;;;;;7.13;4.25;;;;;;;27.34;44.53;101751.13;10095552;28;20039;-68
2021/09/08 13:48:59;;;;;;;7.22;4.63;;;;;;;26.77;46.04;101754.13;10084175;28;20047;-69
2021/09/08 13:53:56;;;;;;;6.22;3.67;;;;;;;26.32;46.32;101737.75;10088845;28;20125;-70
2021/09/08 13:58:52;;;;;;;6.57;4.63;;;;;;;26.06;47.40;101736.13;10094686;28;20159;-68
2021/09/08 14:03:49;;;;;;;8.70;4.63;;;;;;;26.08;47.00;101722.53;10098446;28;20507;-69
2021/09/08 14:08:46;;;;;;;16.77;4.88;;;;;;;26.33;48.29;101718.91;10086909;28;20084;-71
2021/09/08 14:13:42;;;;;;;7.55;4.53;;;;;;;26.36;48.74;101716.09;10098283;28;20082;-70
2021/09/08 14:18:39;;;;;;;9.10;4.20;;;;;;;26.32;48.08;101720.09;10094365;28;20118;-69
2021/09/08 14:23:36;;;;;;;7.55;4.45;;;;;;;26.32;46.02;101715.31;10093905;28;20039;-71
2021/09/08 14:28:32;;;;;;;7.57;4.90;;;;;;;26.16;48.66;101704.53;10095017;28;20130;-70
2021/09/08 14:33:29;;;;;;;6.63;4.53;;;;;;;26.18;49.10;101696.50;10094919;28;20138;-71
2021/09/08 14:38:25;;;;;;;11.30;4.63;;;;;;;26.13;47.36;101694.13;10087015;28;20047;-70
2021/09/08 14:43:22;;;;;;;6.68;4.28;;;;;;;25.99;48.82;101688.50;10091321;28;20133;-70
2021/09/08 14:48:19;;;;;;;6.30;4.55;;;;;;;25.87;49.02;101683.31;10085781;28;20525;-69
2021/09/08 14:53:15;;;;;;;6.13;4.25;;;;;;;25.79;50.28;101680.47;10098288;28;20102;-70
2021/09/08 14:58:13;;;;;;;6.68;4.15;;;;;;;25.69;47.70;101672.88;10100785;28;20102;-72
2021/09/08 15:03:10;;;;;;;8.73;4.90;;;;;;;25.55;47.05;101665.28;10109083;28;20043;-71
2021/09/08 15:08:07;;;;;;;5.93;4.32;;;;;;;25.43;50.57;101659.25;10106467;28;20042;-70
2021/09/08 15:13:04;;;;;;;9.13;3.53;;;;;;;25.47;49.38;101657.25;10110786;28;20118;-72
2021/09/08 15:18:00;;;;;;;8.43;4.07;;;;;;;25.53;48.63;101647.25;10094196;28;20395;-70
2021/09/08 15:22:57;;;;;;;8.35;5.28;;;;;;;25.51;49.30;101635.66;10095336;28;20063;-73
2021/09/08 15:27:54;;;;;;;6.57;4.10;;;;;;;25.64;47.89;101648.06;10101363;28;20046;-70
2021/09/08 15:32:51;;;;;;;7.57;4.00;;;;;;;25.69;44.42;101633.69;10100044;28;20522;-69
2021/09/08 15:37:48;;;;;;;7.63;4.35;;;;;;;25.77;49.34;101632.47;10104071;28;20086;-70
2021/09/08 15:42:44;;;;;;;7.00;3.58;;;;;;;25.69;45.09;101635.66;10094926;28;20047;-70
2021/09/08 15:47:41;;;;;;;6.20;3.67;;;;;;;25.62;46.04;101622.44;10095629;28;20109;-67
2021/09/08 15:52:38;;;;;;;7.88;4.00;;;;;;;25.56;46.85;101612.88;10097976;28;20047;-69
2021/09/08 15:57:34;;;;;;;8.75;4.07;;;;;;;25.54;49.81;101615.25;10106000;28;20066;-70
2021/09/08 16:02:31;;;;;;;5.97;3.75;;;;;;;25.33;45.55;101605.66;10092027;28;20522;-71
2021/09/08 16:07:28;;;;;;;5.50;3.38;;;;;;;25.37;50.14;101606.44;10106789;28;20073;-70
2021/09/08 16:12:29;;;;;;;5.57;3.42;;;;;;;25.35;48.86;101594.84;10099880;28;20043;-69
2021/09/08 16:17:26;;;;;;;7.95;3.25;;;;;;;25.23;45.62;101589.66;10088163;28;20051;-69
2021/09/08 16:22:22;;;;;;;7.72;3.08;;;;;;;25.09;45.11;101590.41;10084707;28;20079;-70
2021/09/08 16:27:18;;;;;;;5.68;2.70;;;;;;;25.03;49.47;101591.19;10095900;28;20038;-70
2021/09/08 16:32:15;;;;;;;5.20;3.35;;;;;;;24.98;46.89;101590.38;10088608;28;20098;-70
2021/09/08 16:37:12;;;;;;;6.20;3.08;;;;;;;24.68;47.76;101587.09;10093640;28;20075;-70
2021/09/08 16:42:09;;;;;;;4.68;2.97;;;;;;;24.45;47.50;101579.78;10088559;28;20047;-69
2021/09/08 16:47:05;;;;;;;5.28;3.13;;;;;;;24.20;51.84;101573.25;10093310;28;20101;-69
2021/09/08 16:52:02;;;;;;;6.60;3.70;;;;;;;23.96;51.27;101561.56;10088422;28;20541;-69
2021/09/08 16:56:58;;;;;;;5.63;3.70;;;;;;;23.81;50.85;101568.22;10081335;28;20572;-68
2021/09/08 17:01:55;;;;;;;6.40;3.47;;;;;;;23.70;51.01;101554.97;10081090;28;20672;-69
2021/09/08 17:06:52;;;;;;;5.72;3.63;;;;;;;23.54;50.90;101554.47;10085126;28;20050;-68
2021/09/08 17:11:49;;;;;;;5.18;3.30;;;;;;;23.37;51.37;101543.94;10094476;28;20049;-68
2021/09/08 17:16:45;;;;;;;5.90;3.55;;;;;;;23.23;52.29;101545.44;10092310;28;20526;-68
2021/09/08 17:21:42;;;;;;;7.85;4.20;;;;;;;23.07;52.84;101547.69;10087876;28;20133;-67
2021/09/08 17:26:39;;;;;;;6.72;4.18;;;;;;;22.92;54.03;101552.25;10092691;28;20110;-68
2021/09/08 17:31:35;;;;;;;8.50;4.00;;;;;;;22.71;53.36;101552.84;10087443;28;20078;-68
2021/09/08 17:36:32;;;;;;;8.55;4.60;;;;;;;22.57;53.91;101552.69;10088069;28;20054;-68
2021/09/08 17:41:31;;;;;;;7.63;4.90;;;;;;;22.40;55.23;101543.72;10096957;28;20074;-68
2021/09/08 17:46:27;;;;;;;9.27;4.60;;;;;;;22.24;55.58;101545.91;10102167;28;20089;-72
2021/09/08 17:51:23;;;;;;;9.43;4.82;;;;;;;22.08;55.69;101548.84;10099258;28;20047;-68
2021/09/08 17:56:20;;;;;;;9.00;4.65;;;;;;;21.93;55.32;101552.59;10097500;28;20090;-68
2021/09/08 18:01:16;;;;;;;7.20;4.35;;;;;;;21.77;55.32;101555.53;10089166;28;20106;-70
2021/09/08 18:06:13;;;;;;;8.30;4.82;;;;;;;21.63;55.82;101551.38;10098349;28;20096;-67
2021/09/08 18:11:10;;;;;;;9.68;5.40;;;;;;;21.49;56.06;101551.16;10099540;28;20097;-67
2021/09/08 18:16:06;;;;;;;10.57;5.45;;;;;;;21.36;56.73;101552.47;10098587;28;20047;-69
2021/09/08 18:21:03;;;;;;;10.93;6.07;;;;;;;21.22;57.12;101553.03;10094242;28;20078;-68
2021/09/08 18:26:00;;;;;;;11.65;5.97;;;;;;;21.07;57.60;101551.97;10092546;28;20043;-67
2021/09/08 18:30:57;;;;;;;9.90;6.25;;;;;;;20.94;57.90;101554.13;10092479;28;20102;-69
2021/09/08 18:35:53;;;;;;;8.57;5.88;;;;;;;20.80;58.40;101549.09;10086015;28;20043;-69
2021/09/08 18:40:50;;;;;;;11.10;6.65;;;;;;;20.69;58.81;101559.19;10093523;28;20138;-68
2021/09/08 18:45:47;;;;;;;7.93;5.72;;;;;;;20.57;59.32;101551.81;10108988;28;20099;-69
2021/09/08 18:50:44;;;;;;;8.98;6.72;;;;;;;20.46;59.67;101549.97;10101332;28;20097;-71
2021/09/08 18:55:40;;;;;;;10.13;6.60;;;;;;;20.33;59.79;101555.66;10108292;28;20047;-68
2021/09/08 19:00:37;;;;;;;8.10;5.90;;;;;;;20.21;60.32;101555.78;10105847;28;20070;-70
2021/09/08 19:05:33;;;;;;;14.98;6.63;;;;;;;20.11;60.47;101556.38;10107654;28;20046;-68
2021/09/08 19:10:30;;;;;;;11.38;6.40;;;;;;;20.00;60.61;101553.34;10095202;28;20074;-68
2021/09/08 19:15:27;;;;;;;11.20;6.47;;;;;;;19.89;60.89;101543.97;10096907;28;20078;-70
2021/09/08 19:20:23;;;;;;;9.25;5.93;;;;;;;19.77;60.95;101544.88;10096855;28;20142;-68
2021/09/08 19:25:20;;;;;;;10.70;6.00;;;;;;;19.68;61.47;101549.78;10103494;28;20411;-67
2021/09/08 19:30:16;;;;;;;11.27;6.78;;;;;;;19.57;61.58;101548.75;10099834;28;20046;-68
2021/09/08 19:35:13;;;;;;;11.63;7.15;;;;;;;19.48;61.79;101551.69;10110356;28;20077;-67
2021/09/08 19:40:10;;;;;;;8.93;6.32;;;;;;;19.41;62.06;101549.56;10100288;28;20082;-68
2021/09/08 19:45:09;;;;;;;10.93;6.43;;;;;;;19.33;62.19;101553.28;10098226;28;20057;-69
2021/09/08 19:50:08;;;;;;;10.05;6.30;;;;;;;19.26;62.51;101544.78;10091720;28;20471;-68
2021/09/08 19:55:07;;;;;;;9.85;5.50;;;;;;;19.17;62.80;101541.38;10095570;28;20057;-69
2021/09/08 20:00:04;;;;;;;9.68;6.30;;;;;;;19.07;62.74;101539.94;10100821;28;20046;-67
2021/09/08 20:05:02;;;;;;;13.30;7.00;;;;;;;19.02;62.88;101551.31;10101360;28;20054;-68
2021/09/08 20:09:58;;;;;;;10.98;5.75;;;;;;;18.95;62.65;101551.13;10102012;28;20043;-69
2021/09/08 20:14:55;;;;;;;8.55;5.72;;;;;;;18.88;62.93;101551.72;10099663;28;20105;-68
2021/09/08 20:19:52;;;;;;;11.15;5.90;;;;;;;18.83;63.10;101549.22;10087691;28;20062;-70
2021/09/08 20:24:48;;;;;;;10.13;5.43;;;;;;;18.76;63.27;101540.69;10094284;28;20547;-71
2021/09/08 20:29:45;;;;;;;10.73;6.47;;;;;;;18.72;63.16;101551.66;10101571;28;20047;-67
2021/09/08 20:34:41;;;;;;;8.65;5.60;;;;;;;18.67;63.25;101546.38;10096687;28;20277;-68
2021/09/08 20:39:38;;;;;;;15.30;6.20;;;;;;;18.63;63.41;101534.38;10091296;28;20070;-67
2021/09/08 20:44:34;;;;;;;11.52;6.22;;;;;;;18.54;63.44;101530.97;10091880;28;20105;-68
2021/09/08 20:49:31;;;;;;;9.90;6.05;;;;;;;18.50;63.47;101525.34;10092780;28;20132;-71
2021/09/08 20:54:27;;;;;;;10.73;6.50;;;;;;;18.43;63.76;101533.44;10081650;28;20094;-69
2021/09/08 20:59:24;;;;;;;9.88;6.25;;;;;;;18.39;63.69;101529.75;10096439;28;20141;-69
2021/09/08 21:04:20;;;;;;;11.40;7.10;;;;;;;18.28;63.97;101530.22;10097762;28;20046;-70
2021/09/08 21:09:17;;;;;;;10.48;6.75;;;;;;;18.21;64.42;101529.22;10086202;28;20054;-70
2021/09/08 21:14:14;;;;;;;11.95;7.57;;;;;;;18.12;64.50;101526.59;10081034;28;20526;-70
2021/09/08 21:19:11;;;;;;;9.50;6.47;;;;;;;18.09;64.96;101527.31;10088508;28;20047;-69
2021/09/08 21:24:07;;;;;;;10.40;6.72;;;;;;;18.02;65.05;101524.31;10088926;28;20143;-70
2021/09/08 21:29:04;;;;;;;16.77;8.35;;;;;;;17.97;65.30;101522.59;10091195;28;20134;-70
2021/09/08 21:34:00;;;;;;;10.85;6.75;;;;;;;17.92;65.42;101516.50;10090625;28;20137;-69
2021/09/08 21:38:57;;;;;;;10.68;6.65;;;;;;;17.85;65.44;101515.13;10105237;28;20073;-70
2021/09/08 21:43:53;;;;;;;11.25;7.30;;;;;;;17.79;65.68;101508.19;10100618;28;20047;-69
2021/09/08 21:48:50;;;;;;;10.48;6.78;;;;;;;17.74;66.08;101513.16;10100604;28;20067;-69
2021/09/08 21:53:46;;;;;;;10.70;6.90;;;;;;;17.63;66.42;101499.78;10100570;28;20511;-69
2021/09/08 21:58:42;;;;;;;10.40;7.40;;;;;;;17.58;66.62;101502.78;10100852;28;20133;-69
2021/09/08 22:03:39;;;;;;;10.60;7.88;;;;;;;17.50;66.99;101494.59;10099310;28;20138;-69
2021/09/08 22:08:36;;;;;;;11.43;7.25;;;;;;;17.44;67.13;101497.59;10101242;28;20142;-69
2021/09/08 22:13:32;;;;;;;10.38;7.93;;;;;;;17.38;67.25;101498.19;10108766;28;20055;-68
2021/09/08 22:18:28;;;;;;;12.30;7.72;;;;;;;17.32;67.34;101494.84;10109424;28;20141;-68
2021/09/08 22:23:25;;;;;;;11.60;7.53;;;;;;;17.27;67.71;101492.31;10115937;28;20514;-68
2021/09/08 22:28:22;;;;;;;12.02;7.85;;;;;;;17.23;67.54;101486.66;10113711;28;20047;-68
2021/09/08 22:33:18;;;;;;;12.40;7.80;;;;;;;17.19;67.76;101495.97;10107734;28;20085;-68
2021/09/08 22:38:16;;;;;;;11.68;7.50;;;;;;;17.11;68.18;101483.88;10102812;28;20066;-68